Time;durP1;ratioP1;P1;durP2;ratioP2;P2;SDS_P1;SDS_P2;PMS_P1;PMS_P2;Temp;Humidity;BMP_temperature;BMP_pressure;BME280_temperature;BME280_humidity;BME280_pressure;Samples;Min_cycle;Max_cycle;Signal;HPM_P1;HPM_P2
2022/09/14 00:01:46;;;;;;;24.10;11.00;;;;;;;13.74;73.60;98023.80;88667;1271;99259;-74
2022/09/14 00:03:55;;;;;;;16.20;10.70;;;;;;;13.72;73.58;98020.80;88537;1275;22556;-74
2022/09/14 00:06:06;;;;;;;20.60;11.40;;;;;;;13.68;73.55;98019.04;88497;1274;22586;-73
2022/09/14 00:08:07;;;;;;;18.00;12.20;;;;;;;13.63;73.82;98013.72;88605;1274;100200;-73
2022/09/14 00:10:09;;;;;;;13.20;10.70;;;;;;;13.61;73.63;98014.80;88765;1271;26199;-74
2022/09/14 00:12:11;;;;;;;16.10;11.40;;;;;;;13.59;73.64;98012.45;88724;1271;25260;-73
2022/09/14 00:14:13;;;;;;;15.00;11.00;;;;;;;13.57;73.82;98011.77;88604;1272;99541;-73
2022/09/14 00:16:18;;;;;;;15.80;11.70;;;;;;;13.53;73.89;98013.52;88700;1274;22583;-73
2022/09/14 00:18:20;;;;;;;12.80;10.30;;;;;;;13.49;73.80;98010.42;88638;1274;22585;-74
2022/09/14 00:20:21;;;;;;;16.90;11.40;;;;;;;13.43;73.59;98012.59;88586;1271;99564;-73
2022/09/14 00:22:23;;;;;;;20.70;11.60;;;;;;;13.39;73.74;98013.77;88744;1271;25254;-75
2022/09/14 00:24:28;;;;;;;15.30;10.80;;;;;;;13.37;74.11;98013.09;88699;1271;22621;-74
2022/09/14 00:26:31;;;;;;;19.40;12.00;;;;;;;13.34;73.98;98011.34;88737;1271;99064;-73
2022/09/14 00:28:44;;;;;;;14.00;12.20;;;;;;;13.32;73.97;98015.52;88728;1272;22544;-73
2022/09/14 00:30:46;;;;;;;13.40;11.50;;;;;;;13.31;74.09;98017.56;88583;1274;22555;-74
2022/09/14 00:32:48;;;;;;;17.40;11.70;;;;;;;13.30;74.27;98018.84;88530;1271;99226;-71
2022/09/14 00:34:50;;;;;;;17.70;11.30;;;;;;;13.28;74.42;98017.58;89217;1271;22575;-73
2022/09/14 00:36:53;;;;;;;23.30;12.30;;;;;;;13.25;74.45;98012.86;88653;1274;22764;-72
2022/09/14 00:38:55;;;;;;;17.80;12.30;;;;;;;13.21;74.53;98007.33;88607;1271;99120;-73
2022/09/14 00:40:59;;;;;;;16.90;12.10;;;;;;;13.19;74.42;98004.81;88633;1274;22731;-73
2022/09/14 00:43:01;;;;;;;15.50;11.60;;;;;;;13.20;74.57;98007.45;88716;1272;24213;-74
2022/09/14 00:45:11;;;;;;;19.40;12.40;;;;;;;13.19;74.64;98004.81;88733;1272;99151;-73
2022/09/14 00:47:16;;;;;;;21.50;12.00;;;;;;;13.18;74.74;98005.32;88773;1271;22745;-73
2022/09/14 00:49:22;;;;;;;16.60;11.50;;;;;;;13.18;74.77;98005.77;88858;1271;23012;-74
2022/09/14 00:51:25;;;;;;;21.60;12.30;;;;;;;13.18;74.67;98008.61;88734;1271;99397;-73
2022/09/14 00:53:27;;;;;;;16.50;12.20;;;;;;;13.18;74.65;98008.27;88578;1271;23532;-74
2022/09/14 00:55:30;;;;;;;16.90;11.20;;;;;;;13.17;74.79;98003.39;88706;1271;99084;-74
2022/09/14 00:57:53;;;;;;;17.40;11.80;;;;;;;13.14;74.70;98001.69;88798;1271;26517;-73
2022/09/14 00:59:55;;;;;;;16.50;11.50;;;;;;;13.13;74.78;98004.27;87548;1274;23348;-73
2022/09/14 01:01:57;;;;;;;26.20;12.30;;;;;;;13.11;74.70;98005.23;88717;1274;99178;-72
2022/09/14 01:03:59;;;;;;;16.20;11.60;;;;;;;13.09;74.92;98003.58;88609;1272;22559;-73
2022/09/14 01:06:07;;;;;;;16.30;11.90;;;;;;;13.08;75.10;98005.63;88663;1271;23054;-73
2022/09/14 01:08:22;;;;;;;25.00;12.20;;;;;;;13.08;75.02;98002.80;88660;1271;97853;-74
2022/09/14 01:10:42;;;;;;;17.70;12.40;;;;;;;13.09;75.05;98001.48;88734;1271;22994;-72
2022/09/14 01:13:21;;;;;;;12.90;11.20;;;;;;;13.11;75.13;98002.61;88859;1271;27068;-73
2022/09/14 01:15:30;;;;;;;12.50;11.30;;;;;;;13.11;75.32;98001.70;88699;1271;98830;-72
2022/09/14 01:18:07;;;;;;;15.10;11.70;;;;;;;13.10;75.26;97999.11;88882;1271;22624;-73
2022/09/14 01:20:36;;;;;;;14.10;10.60;;;;;;;13.11;75.05;98000.64;88665;1271;100312;-72
2022/09/14 01:22:44;;;;;;;17.80;11.50;;;;;;;13.11;75.29;97995.70;88907;1271;24217;-73
2022/09/14 01:25:06;;;;;;;16.30;11.30;;;;;;;13.12;75.18;97990.91;88876;1271;25384;-73
2022/09/14 01:27:43;;;;;;;13.10;11.50;;;;;;;13.12;75.31;97993.89;88678;1271;99370;-74
2022/09/14 01:30:02;;;;;;;15.80;11.40;;;;;;;13.12;75.43;97991.40;88286;1277;25530;-74
2022/09/14 01:32:21;;;;;;;19.80;12.00;;;;;;;13.12;75.43;97988.05;88166;1279;99027;-73
2022/09/14 01:34:31;;;;;;;13.60;11.40;;;;;;;13.13;75.47;97988.38;88569;1277;22670;-75
2022/09/14 01:36:37;;;;;;;13.00;11.00;;;;;;;13.15;75.46;97982.95;88345;1278;22627;-74
2022/09/14 01:38:46;;;;;;;14.90;11.90;;;;;;;13.16;75.63;97980.42;88283;1278;101198;-74
2022/09/14 01:40:49;;;;;;;15.20;11.10;;;;;;;13.17;75.51;97977.97;88324;1278;22749;-74
2022/09/14 01:43:05;;;;;;;16.60;11.30;;;;;;;13.18;75.59;97984.11;88582;1280;23161;-74
2022/09/14 01:45:11;;;;;;;15.50;11.50;;;;;;;13.18;75.72;97980.05;88277;1277;99844;-74
2022/09/14 01:47:29;;;;;;;14.60;11.30;;;;;;;13.18;75.62;97977.44;88310;1277;25325;-73
2022/09/14 01:49:41;;;;;;;14.30;11.30;;;;;;;13.18;75.59;97979.88;88362;1277;99078;-73
2022/09/14 01:51:54;;;;;;;19.00;10.90;;;;;;;13.19;75.54;97978.40;88248;1279;22792;-73
2022/09/14 01:54:04;;;;;;;19.30;11.50;;;;;;;13.17;75.62;97973.23;88389;1277;23386;-74
2022/09/14 01:56:19;;;;;;;22.40;11.80;;;;;;;13.16;75.68;97967.67;88363;1277;100572;-73
2022/09/14 01:58:30;;;;;;;19.00;10.60;;;;;;;13.17;75.82;97967.13;88525;1277;22764;-73
2022/09/14 02:00:34;;;;;;;17.30;11.80;;;;;;;13.16;75.57;97967.84;88282;1277;25387;-74
2022/09/14 02:02:48;;;;;;;16.10;11.50;;;;;;;13.16;75.61;97965.42;88280;1280;98155;-73
2022/09/14 02:05:04;;;;;;;20.30;12.00;;;;;;;13.14;75.74;97965.17;88773;1271;24294;-74
2022/09/14 02:07:06;;;;;;;17.10;12.10;;;;;;;13.13;75.84;97959.27;88738;1271;22619;-74
2022/09/14 02:09:11;;;;;;;15.60;11.70;;;;;;;13.11;75.72;97950.61;88630;1274;98929;-72
2022/09/14 02:11:12;;;;;;;15.20;11.10;;;;;;;13.12;76.05;97943.27;88799;1274;24590;-73
2022/09/14 02:13:14;;;;;;;21.20;11.50;;;;;;;13.11;75.87;97940.55;88686;1271;22804;-72
2022/09/14 02:15:17;;;;;;;24.10;12.50;;;;;;;13.12;75.90;97944.88;88733;1271;100760;-73
2022/09/14 02:17:19;;;;;;;15.40;12.10;;;;;;;13.11;76.03;97945.64;88795;1271;22576;-74
2022/09/14 02:19:21;;;;;;;13.70;11.10;;;;;;;13.10;75.76;97944.60;88910;1271;26135;-74
2022/09/14 02:21:27;;;;;;;23.10;12.10;;;;;;;13.08;75.95;97943.71;88525;1271;99406;-74
2022/09/14 02:23:29;;;;;;;23.70;11.80;;;;;;;13.08;75.89;97944.66;88869;1271;24152;-74
2022/09/14 02:25:32;;;;;;;16.10;11.20;;;;;;;13.07;76.03;97944.00;88659;1271;99331;-74
2022/09/14 02:27:34;;;;;;;17.60;11.90;;;;;;;13.07;76.17;97944.16;88773;1271;22509;-73
2022/09/14 02:29:37;;;;;;;13.20;11.40;;;;;;;13.07;76.13;97943.78;88652;1272;22574;-74
2022/09/14 02:31:38;;;;;;;14.60;11.30;;;;;;;13.06;76.08;97946.16;88399;1275;100038;-74
2022/09/14 02:33:52;;;;;;;15.70;11.20;;;;;;;13.05;76.21;97945.21;88828;1272;22594;-74
2022/09/14 02:35:59;;;;;;;17.20;11.80;;;;;;;13.03;76.05;97941.65;88921;1271;22897;-74
2022/09/14 02:38:06;;;;;;;16.40;11.90;;;;;;;13.03;76.20;97942.38;88909;1271;100089;-73
2022/09/14 02:40:27;;;;;;;13.60;10.70;;;;;;;13.02;76.15;97939.62;88844;1271;24269;-76
2022/09/14 02:42:45;;;;;;;13.60;11.90;;;;;;;13.00;76.25;97942.00;88704;1271;23150;-75
2022/09/14 02:45:10;;;;;;;18.40;11.70;;;;;;;12.97;76.22;97938.36;88811;1271;99491;-75
2022/09/14 02:47:12;;;;;;;15.70;11.50;;;;;;;12.95;76.17;97932.37;88755;1271;22538;-74
2022/09/14 02:49:38;;;;;;;15.80;12.00;;;;;;;12.92;76.30;97926.92;88735;1271;22580;-73
2022/09/14 02:52:09;;;;;;;22.80;11.80;;;;;;;12.90;76.19;97925.35;88810;1271;22609;-74
2022/09/14 02:54:18;;;;;;;19.20;11.70;;;;;;;12.88;76.43;97927.77;88808;1271;22570;-73
2022/09/14 02:56:20;;;;;;;15.90;11.40;;;;;;;12.89;76.28;97933.52;88740;1271;99090;-74
2022/09/14 02:58:22;;;;;;;16.40;12.00;;;;;;;12.87;76.15;97930.70;88727;1274;26567;-74
2022/09/14 03:00:24;;;;;;;15.50;11.50;;;;;;;12.87;76.39;97934.20;88744;1272;27079;-74
2022/09/14 03:02:26;;;;;;;21.50;12.20;;;;;;;12.85;76.45;97932.60;88465;1274;99072;-73
2022/09/14 03:04:27;;;;;;;18.40;12.10;;;;;;;12.82;76.21;97932.45;88743;1271;22649;-75
2022/09/14 03:06:29;;;;;;;12.50;11.30;;;;;;;12.78;76.40;97929.37;88705;1271;26242;-72
2022/09/14 03:08:32;;;;;;;16.80;11.20;;;;;;;12.75;76.42;97928.85;88758;1271;99167;-73
2022/09/14 03:10:34;;;;;;;17.00;11.80;;;;;;;12.74;76.14;97929.00;88736;1271;22558;-73
2022/09/14 03:12:38;;;;;;;15.20;11.90;;;;;;;12.72;76.37;97922.98;88708;1271;22710;-74
2022/09/14 03:14:39;;;;;;;15.00;11.70;;;;;;;12.70;76.54;97916.05;88877;1271;99051;-74
2022/09/14 03:16:42;;;;;;;19.20;11.60;;;;;;;12.69;76.57;97916.13;88852;1271;27359;-73
2022/09/14 03:18:44;;;;;;;18.50;12.30;;;;;;;12.67;76.44;97915.90;88782;1271;23113;-75
2022/09/14 03:20:47;;;;;;;27.10;12.70;;;;;;;12.66;76.58;97916.19;88677;1271;99145;-74
2022/09/14 03:22:50;;;;;;;16.10;12.70;;;;;;;12.64;76.57;97925.66;88644;1271;22717;-74
2022/09/14 03:24:51;;;;;;;16.60;12.50;;;;;;;12.63;76.64;97923.77;88693;1274;22547;-73
2022/09/14 03:26:53;;;;;;;20.40;13.30;;;;;;;12.63;76.56;97923.45;88673;1271;99490;-74
2022/09/14 03:28:57;;;;;;;13.80;12.30;;;;;;;12.63;76.74;97925.18;88858;1271;22660;-73
2022/09/14 03:31:03;;;;;;;18.60;12.50;;;;;;;12.64;76.62;97920.75;88791;1271;22598;-73
2022/09/14 03:33:05;;;;;;;18.00;12.20;;;;;;;12.63;76.80;97921.33;88709;1271;98904;-74
2022/09/14 03:35:07;;;;;;;16.30;11.90;;;;;;;12.62;76.61;97912.77;88724;1274;22570;-72
2022/09/14 03:37:09;;;;;;;14.10;12.50;;;;;;;12.62;76.82;97916.67;88904;1271;22771;-74
2022/09/14 03:39:11;;;;;;;16.00;12.50;;;;;;;12.60;76.77;97913.10;88686;1271;99894;-76
2022/09/14 03:41:14;;;;;;;15.80;12.20;;;;;;;12.60;76.66;97911.88;88747;1271;22724;-75
2022/09/14 03:43:15;;;;;;;16.90;12.30;;;;;;;12.59;76.81;97915.77;88613;1274;22573;-74
2022/09/14 03:45:19;;;;;;;18.10;13.50;;;;;;;12.58;76.80;97913.91;88642;1271;98931;-75
2022/09/14 03:47:21;;;;;;;18.20;12.90;;;;;;;12.57;76.88;97912.26;88882;1271;25910;-73
2022/09/14 03:49:23;;;;;;;21.00;12.20;;;;;;;12.55;76.91;97909.04;88665;1272;24210;-73
2022/09/14 03:51:25;;;;;;;16.90;13.20;;;;;;;12.54;76.77;97907.17;88638;1271;100091;-75
2022/09/14 03:53:27;;;;;;;16.20;13.10;;;;;;;12.53;76.92;97908.87;88836;1271;22573;-74
2022/09/14 03:55:28;;;;;;;14.30;12.30;;;;;;;12.51;76.83;97910.42;88596;1271;100291;-74
2022/09/14 03:57:31;;;;;;;17.30;12.30;;;;;;;12.50;77.12;97914.39;88720;1271;24384;-74
2022/09/14 03:59:34;;;;;;;16.50;13.20;;;;;;;12.49;77.15;97916.21;88637;1274;22786;-75
2022/09/14 04:01:36;;;;;;;19.80;13.50;;;;;;;12.47;77.10;97910.00;88606;1271;101094;-74
2022/09/14 04:03:39;;;;;;;16.90;12.80;;;;;;;12.48;77.05;97910.66;88756;1271;22833;-75
2022/09/14 04:05:40;;;;;;;14.40;12.90;;;;;;;12.47;77.21;97908.95;88695;1275;23341;-72
2022/09/14 04:07:42;;;;;;;18.70;13.60;;;;;;;12.47;77.03;97908.45;88711;1271;99343;-74
2022/09/14 04:09:44;;;;;;;16.50;13.00;;;;;;;12.46;77.23;97907.59;88701;1271;24217;-74
2022/09/14 04:11:46;;;;;;;14.30;11.90;;;;;;;12.46;77.09;97905.31;88578;1274;22633;-74
2022/09/14 04:13:48;;;;;;;20.00;12.60;;;;;;;12.44;77.30;97907.52;88595;1275;98923;-74
2022/09/14 04:15:58;;;;;;;17.30;13.50;;;;;;;12.42;77.28;97906.61;88743;1271;23770;-73
2022/09/14 04:18:00;;;;;;;17.60;12.30;;;;;;;12.43;77.32;97912.71;88518;1274;24187;-74
2022/09/14 04:20:02;;;;;;;22.20;13.20;;;;;;;12.43;77.36;97906.77;88627;1271;99256;-74
2022/09/14 04:22:04;;;;;;;22.50;13.50;;;;;;;12.46;77.35;97913.62;88743;1271;22610;-74
2022/09/14 04:24:06;;;;;;;15.70;12.10;;;;;;;12.44;77.25;97907.00;88774;1271;25257;-74
2022/09/14 04:26:11;;;;;;;16.50;12.80;;;;;;;12.42;77.13;97911.92;88700;1271;98943;-76
2022/09/14 04:28:13;;;;;;;14.50;11.70;;;;;;;12.40;77.24;97912.23;88779;1271;22554;-74
2022/09/14 04:30:16;;;;;;;18.70;12.80;;;;;;;12.37;77.30;97916.14;88672;1274;22783;-75
2022/09/14 04:32:17;;;;;;;16.70;11.90;;;;;;;12.35;77.15;97913.88;88569;1274;99138;-75
2022/09/14 04:34:20;;;;;;;17.70;13.10;;;;;;;12.31;77.31;97911.64;88814;1271;26441;-75
2022/09/14 04:36:27;;;;;;;19.70;12.80;;;;;;;12.28;77.16;97906.27;88683;1271;24255;-73
2022/09/14 04:38:30;;;;;;;15.70;12.40;;;;;;;12.29;77.44;97906.56;88345;1274;99175;-74
2022/09/14 04:40:32;;;;;;;16.50;11.60;;;;;;;12.28;77.48;97910.29;88588;1274;22566;-74
2022/09/14 04:42:34;;;;;;;24.20;13.00;;;;;;;12.27;77.45;97912.48;88548;1271;22683;-75
2022/09/14 04:44:36;;;;;;;18.80;13.70;;;;;;;12.28;77.48;97913.48;88269;1274;99025;-75
2022/09/14 04:46:41;;;;;;;23.00;13.90;;;;;;;12.31;77.66;97916.80;88531;1271;25392;-73
2022/09/14 04:48:43;;;;;;;21.30;13.50;;;;;;;12.32;77.58;97910.54;88491;1272;23395;-73
2022/09/14 04:50:45;;;;;;;28.60;13.90;;;;;;;12.35;77.70;97918.58;88532;1271;99411;-73
2022/09/14 04:52:46;;;;;;;25.60;12.80;;;;;;;12.39;77.92;97918.67;88576;1271;22778;-75
2022/09/14 04:54:48;;;;;;;20.20;13.00;;;;;;;12.40;77.86;97918.54;88619;1271;22687;-74
2022/09/14 04:56:50;;;;;;;17.10;13.00;;;;;;;12.42;77.79;97919.13;88536;1272;99746;-74
2022/09/14 04:58:58;;;;;;;24.90;13.70;;;;;;;12.43;77.78;97915.54;88640;1271;24518;-72
2022/09/14 05:01:04;;;;;;;29.10;13.40;;;;;;;12.45;77.85;97914.17;88565;1271;25285;-74
2022/09/14 05:03:06;;;;;;;21.70;12.60;;;;;;;12.46;77.78;97913.58;88565;1271;100744;-74
2022/09/14 05:05:08;;;;;;;15.90;13.10;;;;;;;12.50;77.83;97916.50;88672;1271;22722;-73
2022/09/14 05:07:10;;;;;;;27.90;14.70;;;;;;;12.53;78.00;97910.97;88556;1271;22733;-74
2022/09/14 05:09:14;;;;;;;27.10;14.30;;;;;;;12.57;78.09;97913.63;88677;1271;99934;-73
2022/09/14 05:11:20;;;;;;;20.30;13.50;;;;;;;12.62;78.16;97911.16;88612;1271;22550;-72
2022/09/14 05:13:22;;;;;;;19.90;14.00;;;;;;;12.67;78.21;97910.98;88568;1274;24278;-74
2022/09/14 05:15:24;;;;;;;21.30;13.70;;;;;;;12.72;78.25;97911.70;88600;1271;98919;-75
2022/09/14 05:17:25;;;;;;;22.70;12.40;;;;;;;12.76;78.20;97913.27;88563;1271;25258;-74
2022/09/14 05:19:27;;;;;;;19.80;13.90;;;;;;;12.81;78.32;97914.05;88565;1275;22556;-74
2022/09/14 05:21:31;;;;;;;19.30;12.70;;;;;;;12.85;78.07;97915.83;88379;1278;25267;-72
2022/09/14 05:23:33;;;;;;;16.50;13.60;;;;;;;12.89;78.08;97915.16;88564;1275;23560;-73
2022/09/14 05:25:35;;;;;;;21.80;13.90;;;;;;;12.92;78.18;97911.77;88467;1277;99786;-74
2022/09/14 05:27:37;;;;;;;15.50;12.40;;;;;;;12.97;78.43;97911.55;88574;1271;22731;-75
2022/09/14 05:29:39;;;;;;;24.90;14.00;;;;;;;13.02;78.15;97910.35;88663;1274;23132;-73
2022/09/14 05:31:41;;;;;;;23.90;12.70;;;;;;;13.04;78.23;97911.55;88637;1274;99286;-75
2022/09/14 05:33:43;;;;;;;32.50;13.60;;;;;;;13.07;78.16;97910.81;88652;1274;22720;-74
2022/09/14 05:35:45;;;;;;;20.70;12.30;;;;;;;13.09;78.27;97907.81;88446;1274;23079;-75
2022/09/14 05:37:47;;;;;;;27.50;12.30;;;;;;;13.13;78.19;97906.70;88492;1274;100442;-75
2022/09/14 05:39:49;;;;;;;20.30;13.00;;;;;;;13.16;78.11;97905.07;88630;1274;22559;-75
2022/09/14 05:41:51;;;;;;;18.10;12.00;;;;;;;13.19;78.10;97895.86;88647;1271;22604;-74
2022/09/14 05:43:52;;;;;;;22.70;12.80;;;;;;;13.22;78.09;97898.24;88427;1274;99408;-74
2022/09/14 05:45:55;;;;;;;33.90;12.00;;;;;;;13.24;78.08;97897.91;88509;1274;24264;-74
2022/09/14 05:48:00;;;;;;;16.80;12.50;;;;;;;13.25;78.17;97892.52;88644;1274;22670;-74
2022/09/14 05:50:03;;;;;;;19.60;12.20;;;;;;;13.30;78.01;97893.56;89105;1271;99170;-72
2022/09/14 05:52:05;;;;;;;14.20;12.40;;;;;;;13.33;78.08;97890.37;88554;1274;24244;-73
2022/09/14 05:54:10;;;;;;;20.20;13.00;;;;;;;13.35;78.19;97886.83;88634;1274;26633;-75
2022/09/14 05:56:13;;;;;;;32.00;14.00;;;;;;;13.39;78.31;97886.20;88521;1271;99478;-73
2022/09/14 05:58:16;;;;;;;17.10;12.50;;;;;;;13.43;78.33;97887.64;88810;1274;22533;-74
2022/09/14 06:00:19;;;;;;;15.20;12.20;;;;;;;13.47;78.17;97891.42;88819;1271;25254;-75
2022/09/14 06:02:21;;;;;;;22.20;11.70;;;;;;;13.53;78.18;97889.90;89755;1271;99538;-75
2022/09/14 06:04:23;;;;;;;22.50;11.90;;;;;;;13.59;78.18;97888.23;88841;1271;22619;-76
2022/09/14 06:06:25;;;;;;;21.70;12.90;;;;;;;13.66;78.33;97891.34;88587;1274;22577;-73
2022/09/14 06:08:28;;;;;;;16.20;11.40;;;;;;;13.73;78.07;97889.73;88912;1274;99480;-75
2022/09/14 06:10:29;;;;;;;17.70;10.80;;;;;;;13.81;78.36;97887.16;88560;1274;23045;-75
2022/09/14 06:12:31;;;;;;;17.50;10.50;;;;;;;13.91;78.23;97886.45;88574;1272;22853;-74
2022/09/14 06:14:33;;;;;;;16.10;10.60;;;;;;;14.01;78.21;97886.86;88513;1274;99035;-73
2022/09/14 06:16:35;;;;;;;20.10;10.70;;;;;;;14.09;78.32;97887.42;88567;1272;22627;-74
2022/09/14 06:18:39;;;;;;;13.40;10.50;;;;;;;14.18;78.06;97891.66;88619;1271;24159;-74
2022/09/14 06:20:50;;;;;;;11.30;9.10;;;;;;;14.28;78.31;97893.38;88349;1273;99494;-73
2022/09/14 06:22:52;;;;;;;18.00;9.00;;;;;;;14.39;78.07;97890.91;88550;1271;23553;-74
2022/09/14 06:24:53;;;;;;;26.80;8.90;;;;;;;14.48;78.05;97890.63;88441;1274;22554;-75
2022/09/14 06:26:55;;;;;;;15.90;9.40;;;;;;;14.59;77.94;97894.05;88399;1271;98894;-74
2022/09/14 06:28:57;;;;;;;8.60;7.90;;;;;;;14.69;77.80;97897.84;88468;1274;22722;-75
2022/09/14 06:30:58;;;;;;;17.40;8.80;;;;;;;14.79;77.79;97898.62;88386;1274;23494;-75
2022/09/14 06:33:00;;;;;;;17.50;9.20;;;;;;;14.90;77.93;97900.59;88638;1274;99000;-75
2022/09/14 06:35:02;;;;;;;16.40;8.40;;;;;;;15.00;77.86;97901.95;88590;1271;22592;-74
2022/09/14 06:37:05;;;;;;;7.30;6.60;;;;;;;15.12;77.89;97899.60;88753;1271;22621;-74
2022/09/14 06:39:07;;;;;;;20.60;10.00;;;;;;;15.23;77.72;97900.40;88537;1271;98622;-74
2022/09/14 06:41:13;;;;;;;12.90;8.40;;;;;;;15.35;77.67;97900.64;88497;1271;25937;-75
2022/09/14 06:43:15;;;;;;;16.70;7.30;;;;;;;15.48;77.58;97896.90;88659;1271;23243;-78
2022/09/14 06:45:16;;;;;;;16.10;7.20;;;;;;;15.60;77.46;97899.92;88456;1271;99003;-74
2022/09/14 06:47:21;;;;;;;8.50;7.10;;;;;;;15.72;77.37;97903.17;88596;1271;24798;-75
2022/09/14 06:49:22;;;;;;;10.90;6.30;;;;;;;15.83;77.34;97905.04;88708;1271;22883;-76
2022/09/14 06:51:32;;;;;;;8.60;6.60;;;;;;;15.95;77.31;97909.31;88472;1271;98736;-76
2022/09/14 06:53:33;;;;;;;9.10;6.90;;;;;;;16.06;77.05;97910.86;88768;1271;23946;-75
2022/09/14 06:55:37;;;;;;;16.60;6.70;;;;;;;16.15;76.98;97916.08;88536;1271;99747;-75
2022/09/14 06:57:38;;;;;;;14.60;7.00;;;;;;;16.24;76.79;97919.55;88579;1271;22702;-75
2022/09/14 06:59:40;;;;;;;17.50;6.30;;;;;;;16.32;76.77;97917.81;88515;1274;22679;-73
2022/09/14 07:01:44;;;;;;;17.10;6.50;;;;;;;16.39;76.67;97916.41;88570;1271;99717;-76
2022/09/14 07:03:51;;;;;;;12.50;6.40;;;;;;;16.47;76.60;97918.73;88746;1271;23294;-76
2022/09/14 07:05:59;;;;;;;20.40;6.70;;;;;;;16.54;76.36;97922.44;88627;1271;25381;-75
2022/09/14 07:08:01;;;;;;;11.20;6.10;;;;;;;16.59;76.39;97923.71;88558;1271;99108;-76
2022/09/14 07:10:03;;;;;;;14.50;7.20;;;;;;;16.64;76.34;97924.13;88661;1271;22648;-76
2022/09/14 07:12:05;;;;;;;14.60;6.70;;;;;;;16.69;76.31;97922.09;88613;1271;24088;-74
2022/09/14 07:14:08;;;;;;;15.30;6.60;;;;;;;16.74;76.25;97918.48;88630;1271;98759;-76
2022/09/14 07:16:11;;;;;;;14.50;6.70;;;;;;;16.79;76.34;97913.45;88505;1274;22567;-73
2022/09/14 07:18:15;;;;;;;22.20;7.20;;;;;;;16.84;76.21;97911.20;88602;1274;23209;-74
2022/09/14 07:20:17;;;;;;;14.40;6.40;;;;;;;16.88;76.23;97910.33;88583;1271;99651;-76
2022/09/14 07:22:18;;;;;;;18.20;7.20;;;;;;;16.93;76.16;97911.17;88580;1271;22633;-76
2022/09/14 07:24:20;;;;;;;10.20;6.20;;;;;;;16.97;76.16;97911.63;88600;1271;22500;-76
2022/09/14 07:26:24;;;;;;;10.50;6.30;;;;;;;17.02;76.09;97914.23;88462;1271;99009;-76
2022/09/14 07:28:26;;;;;;;14.60;6.50;;;;;;;17.06;75.96;97912.80;88586;1271;22725;-75
2022/09/14 07:30:28;;;;;;;17.70;6.60;;;;;;;17.10;75.96;97911.73;88467;1273;22573;-76
2022/09/14 07:32:29;;;;;;;11.40;6.40;;;;;;;17.15;75.93;97917.91;88486;1271;98947;-76
2022/09/14 07:34:31;;;;;;;18.60;6.60;;;;;;;17.20;75.72;97916.25;88636;1271;22635;-75
2022/09/14 07:36:34;;;;;;;19.60;6.20;;;;;;;17.26;75.75;97910.98;88676;1271;22553;-76
2022/09/14 07:38:36;;;;;;;19.30;6.20;;;;;;;17.31;75.70;97912.96;88505;1271;100688;-75
2022/09/14 07:40:38;;;;;;;9.60;6.00;;;;;;;17.38;75.64;97911.73;88646;1271;25364;-75
2022/09/14 07:42:40;;;;;;;12.90;5.90;;;;;;;17.45;75.63;97914.50;88491;1274;23573;-75
2022/09/14 07:44:41;;;;;;;13.40;6.50;;;;;;;17.52;75.44;97909.98;88680;1271;98927;-76
2022/09/14 07:46:44;;;;;;;27.90;6.40;;;;;;;17.57;75.35;97905.39;88564;1271;22599;-76
2022/09/14 07:48:47;;;;;;;10.30;5.20;;;;;;;17.63;75.51;97902.54;88608;1271;22775;-75
2022/09/14 07:51:11;;;;;;;21.00;6.10;;;;;;;17.69;75.45;97905.02;88350;1274;98842;-76
2022/09/14 07:53:13;;;;;;;11.90;5.40;;;;;;;17.74;75.38;97900.92;88471;1274;22561;-75
2022/09/14 07:55:17;;;;;;;10.50;5.70;;;;;;;17.79;75.32;97907.25;88482;1271;22550;-76
2022/09/14 07:57:19;;;;;;;10.60;5.40;;;;;;;17.82;75.15;97906.52;88433;1273;100333;-76
2022/09/14 07:59:20;;;;;;;13.10;5.40;;;;;;;17.84;74.90;97907.95;88565;1271;22530;-75
2022/09/14 08:01:23;;;;;;;10.00;4.60;;;;;;;17.86;75.07;97907.05;88536;1271;25523;-76
2022/09/14 08:03:25;;;;;;;7.90;5.60;;;;;;;17.88;74.95;97904.58;88459;1271;98964;-76
2022/09/14 08:05:26;;;;;;;20.40;6.30;;;;;;;17.92;74.88;97907.88;88548;1271;22597;-76
2022/09/14 08:07:28;;;;;;;25.60;5.40;;;;;;;17.92;74.79;97905.33;88754;1271;24218;-76
2022/09/14 08:09:30;;;;;;;20.00;5.70;;;;;;;17.93;74.74;97902.90;88376;1274;99123;-75
2022/09/14 08:11:34;;;;;;;14.50;5.60;;;;;;;17.94;74.79;97904.41;88485;1274;23313;-75
2022/09/14 08:13:38;;;;;;;6.40;4.90;;;;;;;17.96;74.83;97903.13;88264;1274;99505;-75
2022/09/14 08:15:39;;;;;;;9.90;4.80;;;;;;;17.98;74.72;97899.96;88581;1274;25400;-76
2022/09/14 08:17:41;;;;;;;5.80;5.00;;;;;;;18.01;74.80;97902.16;88809;1271;22579;-76
2022/09/14 08:19:44;;;;;;;13.00;5.10;;;;;;;18.03;74.63;97899.92;88597;1271;97630;-77
2022/09/14 08:21:47;;;;;;;7.30;4.60;;;;;;;18.07;74.50;97897.85;88611;1274;22543;-75
2022/09/14 08:23:49;;;;;;;7.90;4.90;;;;;;;18.11;74.60;97895.50;88556;1274;22564;-74
2022/09/14 08:25:52;;;;;;;12.50;5.20;;;;;;;18.14;74.53;97896.06;88499;1274;99541;-74
2022/09/14 08:27:53;;;;;;;6.10;4.80;;;;;;;18.18;74.51;97893.90;88601;1274;22556;-76
2022/09/14 08:29:55;;;;;;;18.60;5.00;;;;;;;18.22;74.45;97898.31;88486;1274;24554;-76
2022/09/14 08:31:57;;;;;;;9.20;5.10;;;;;;;18.26;74.40;97896.36;88573;1271;99740;-76
2022/09/14 08:34:02;;;;;;;9.90;5.20;;;;;;;18.31;74.54;97896.59;88724;1271;25406;-76
2022/09/14 08:36:06;;;;;;;8.10;4.30;;;;;;;18.36;74.26;97896.84;88997;1271;23661;-76
2022/09/14 08:38:08;;;;;;;63.90;7.00;;;;;;;18.39;74.41;97895.96;88954;1271;98872;-74
2022/09/14 08:40:14;;;;;;;12.50;5.50;;;;;;;18.46;74.30;97894.61;88606;1273;22605;-75
2022/09/14 08:42:23;;;;;;;22.20;5.10;;;;;;;18.50;74.24;97894.38;88598;1271;24495;-75
2022/09/14 08:44:27;;;;;;;12.70;4.60;;;;;;;18.53;74.29;97898.55;88274;1274;98753;-76
2022/09/14 08:46:39;;;;;;;14.80;4.60;;;;;;;18.59;74.30;97899.23;88888;1271;22844;-76
2022/09/14 08:48:47;;;;;;;9.70;5.00;;;;;;;18.66;74.24;97897.67;88643;1274;22560;-76
2022/09/14 08:50:53;;;;;;;7.60;4.70;;;;;;;18.71;74.07;97892.52;88634;1271;98627;-76
2022/09/14 08:52:55;;;;;;;4.70;4.20;;;;;;;18.80;73.98;97896.80;88892;1274;22578;-76
2022/09/14 08:54:59;;;;;;;12.20;5.10;;;;;;;18.87;73.88;97896.28;88623;1271;23738;-76
2022/09/14 08:57:15;;;;;;;10.60;4.50;;;;;;;18.95;73.96;97898.15;88614;1271;98944;-75
2022/09/14 08:59:20;;;;;;;7.40;4.60;;;;;;;19.04;73.68;97897.83;88946;1271;22576;-76
2022/09/14 09:01:37;;;;;;;7.20;4.60;;;;;;;19.11;73.61;97896.23;88737;1271;22610;-76
2022/09/14 09:03:48;;;;;;;11.30;5.20;;;;;;;19.18;73.41;97894.11;88728;1271;98701;-77
2022/09/14 09:05:52;;;;;;;10.40;4.50;;;;;;;19.24;73.31;97888.85;88901;1271;22548;-76
2022/09/14 09:08:02;;;;;;;5.50;4.30;;;;;;;19.29;73.36;97888.38;88681;1271;99088;-77
2022/09/14 09:10:05;;;;;;;11.60;4.90;;;;;;;19.35;73.35;97887.55;88741;1271;22657;-75
2022/09/14 09:12:13;;;;;;;8.10;4.50;;;;;;;19.39;73.13;97885.94;88780;1274;22578;-75
2022/09/14 09:14:25;;;;;;;6.20;4.40;;;;;;;19.46;72.93;97888.20;88883;1271;99149;-77
2022/09/14 09:16:27;;;;;;;11.10;4.80;;;;;;;19.51;72.83;97889.13;88723;1273;24290;-76
2022/09/14 09:18:46;;;;;;;8.20;4.70;;;;;;;19.56;72.90;97887.58;89005;1271;24315;-76
2022/09/14 09:21:07;;;;;;;11.50;4.90;;;;;;;19.69;72.94;97886.73;88852;1271;98841;-76
2022/09/14 09:23:21;;;;;;;9.50;4.40;;;;;;;19.82;72.69;97886.36;88713;1271;22560;-75
2022/09/14 09:25:30;;;;;;;10.60;4.40;;;;;;;19.94;72.63;97888.36;88891;1274;24791;-77
2022/09/14 09:27:32;;;;;;;4.50;3.80;;;;;;;20.03;72.28;97889.85;88958;1271;98935;-76
2022/09/14 09:29:34;;;;;;;5.50;4.30;;;;;;;20.12;72.39;97882.70;88992;1271;23377;-76
2022/09/14 09:31:46;;;;;;;7.90;4.60;;;;;;;20.22;72.35;97883.20;88905;1271;22600;-76
2022/09/14 09:33:49;;;;;;;11.00;4.80;;;;;;;20.32;72.19;97883.99;89092;1271;24446;-76
2022/09/14 09:35:53;;;;;;;6.30;4.80;;;;;;;20.40;72.14;97880.80;88780;1271;23974;-75
2022/09/14 09:37:56;;;;;;;6.10;4.30;;;;;;;20.49;71.74;97878.05;88776;1271;99065;-75